Terminal Aerodrome Forecast
Issued by NWS

Home | Current Version | Previous Version | Text Only | Print | Product List | Glossary On
Versions: 1 2 3 4 5 6 7 8 9 10 11 12 13 14
651
FTUS43 KUNR 301000 AAB
TAFGCC
TAF AMD
KGCC 301000Z 3010/0106 11005KT P6SM OVC035
     FM301400 05008KT P6SM -RASN BKN010 OVC025
     FM301800 06010KT P6SM BKN015 OVC035
     FM302100 04016KT P6SM BKN035
     FM010000 VRB05KT P6SM BKN090=

USA.gov is the U.S. government's official web portal to all federal, state and local government web resources and services.